Time;durP1;ratioP1;P1;durP2;ratioP2;P2;SDS_P1;SDS_P2;PMS_P1;PMS_P2;Temp;Humidity;BMP_temperature;BMP_pressure;BME280_temperature;BME280_humidity;BME280_pressure;Samples;Min_cycle;Max_cycle;Signal;HPM_P1;HPM_P2
2024/04/07 00:00:03;;;;;;;1.50;0.43;;;;;20.20;99758.00;;;;2052144;28;20486;-57
2024/04/07 00:01:04;;;;;;;1.77;0.47;;;;;20.20;99762.00;;;;2043195;28;20223;-57
2024/04/07 00:02:04;;;;;;;1.70;0.60;;;;;20.20;99766.00;;;;2051522;28;20469;-56
2024/04/07 00:03:05;;;;;;;1.50;0.50;;;;;20.20;99756.00;;;;2053379;28;20223;-57
2024/04/07 00:04:06;;;;;;;1.40;0.37;;;;;20.20;99758.00;;;;2047990;28;20216;-57
2024/04/07 00:05:06;;;;;;;1.50;0.50;;;;;20.20;99753.00;;;;2052784;28;20307;-57
2024/04/07 00:06:07;;;;;;;1.63;0.50;;;;;20.20;99765.00;;;;2041889;28;20212;-57
2024/04/07 00:07:07;;;;;;;1.53;0.50;;;;;20.20;99762.00;;;;2049244;28;20238;-57
2024/04/07 00:08:07;;;;;;;1.50;0.50;;;;;20.20;99764.00;;;;2052385;28;20638;-57
2024/04/07 00:09:08;;;;;;;1.80;0.50;;;;;20.20;99774.00;;;;2052786;28;20660;-57
2024/04/07 00:10:08;;;;;;;1.40;0.40;;;;;19.80;99774.00;;;;2050956;28;20242;-57
2024/04/07 00:11:09;;;;;;;1.47;0.50;;;;;20.20;99771.00;;;;2036827;28;20220;-57
2024/04/07 00:12:09;;;;;;;1.30;0.40;;;;;20.20;99769.00;;;;2052331;28;20224;-57
2024/04/07 00:13:10;;;;;;;1.60;0.50;;;;;20.20;99770.00;;;;2053164;28;20226;-57
2024/04/07 00:14:10;;;;;;;1.40;0.40;;;;;20.20;99773.00;;;;2050016;28;20215;-57
2024/04/07 00:15:10;;;;;;;2.13;0.43;;;;;20.20;99768.00;;;;2052369;28;20235;-57
2024/04/07 00:16:11;;;;;;;1.27;0.40;;;;;20.20;99767.00;;;;2042797;28;20221;-57
2024/04/07 00:17:11;;;;;;;2.70;0.60;;;;;20.20;99762.00;;;;2049457;28;20213;-57
2024/04/07 00:18:12;;;;;;;1.50;0.50;;;;;20.20;99765.00;;;;2052119;28;20298;-57
2024/04/07 00:19:12;;;;;;;2.20;0.57;;;;;20.20;99762.00;;;;2056239;28;20210;-56
2024/04/07 00:20:12;;;;;;;1.40;0.50;;;;;20.20;99761.00;;;;2053002;28;20223;-58
2024/04/07 00:21:13;;;;;;;1.40;0.50;;;;;20.20;99763.00;;;;2042378;28;20231;-57
2024/04/07 00:22:13;;;;;;;1.40;0.40;;;;;20.20;99766.00;;;;2052371;28;20313;-57
2024/04/07 00:23:13;;;;;;;1.67;0.50;;;;;20.20;99765.00;;;;2052369;28;20223;-57
2024/04/07 00:24:14;;;;;;;1.30;0.40;;;;;20.20;99768.00;;;;2056030;28;20308;-57
2024/04/07 00:25:16;;;;;;;1.83;0.50;;;;;20.20;99775.00;;;;2049019;28;20318;-57
2024/04/07 00:26:16;;;;;;;2.08;0.60;;;;;20.20;99769.00;;;;2040564;28;20257;-57
2024/04/07 00:27:18;;;;;;;1.50;0.43;;;;;20.20;99773.00;;;;2048222;28;20223;-57
2024/04/07 00:28:19;;;;;;;4.03;0.60;;;;;20.20;99789.00;;;;2049897;28;20223;-57
2024/04/07 00:29:19;;;;;;;1.40;0.50;;;;;20.20;99781.00;;;;2052934;28;20219;-57
2024/04/07 00:30:19;;;;;;;2.07;0.50;;;;;20.20;99774.00;;;;2047848;28;20235;-61
2024/04/07 00:31:20;;;;;;;2.63;0.60;;;;;20.20;99778.00;;;;2045804;28;20584;-57
2024/04/07 00:32:20;;;;;;;1.40;0.50;;;;;20.20;99776.00;;;;2050832;28;20289;-57
2024/04/07 00:33:20;;;;;;;1.70;0.60;;;;;20.20;99780.00;;;;2052191;28;20223;-57
2024/04/07 00:34:21;;;;;;;1.67;0.47;;;;;20.20;99770.00;;;;2051132;28;20223;-57
2024/04/07 00:35:22;;;;;;;1.40;0.50;;;;;20.20;99776.00;;;;2044140;28;20226;-57
2024/04/07 00:36:22;;;;;;;1.50;0.50;;;;;20.20;99779.00;;;;2048593;28;20305;-57
2024/04/07 00:37:25;;;;;;;1.57;0.50;;;;;20.20;99770.00;;;;2058890;28;20292;-57
2024/04/07 00:38:26;;;;;;;1.60;0.40;;;;;20.20;99782.00;;;;2050438;28;20223;-57
2024/04/07 00:39:27;;;;;;;1.50;0.50;;;;;20.20;99776.00;;;;2052579;28;20712;-57
2024/04/07 00:40:27;;;;;;;1.80;0.50;;;;;20.20;99778.00;;;;2042529;28;20520;-57
2024/04/07 00:41:29;;;;;;;1.80;0.50;;;;;20.20;99777.00;;;;2051659;28;20223;-57
2024/04/07 00:42:29;;;;;;;1.50;0.50;;;;;20.20;99787.00;;;;2048011;28;20743;-60
2024/04/07 00:43:29;;;;;;;2.10;0.50;;;;;20.20;99779.00;;;;2049494;28;20216;-57
2024/04/07 00:44:30;;;;;;;1.40;0.50;;;;;20.20;99783.00;;;;2052218;28;20255;-57
2024/04/07 00:45:30;;;;;;;1.50;0.53;;;;;20.20;99768.00;;;;2040857;28;20220;-57
2024/04/07 00:46:31;;;;;;;1.50;0.50;;;;;20.20;99793.00;;;;2049315;28;20271;-57
2024/04/07 00:47:31;;;;;;;1.40;0.43;;;;;20.20;99786.00;;;;2047840;28;20287;-57
2024/04/07 00:48:32;;;;;;;1.50;0.50;;;;;20.20;99787.00;;;;2052239;28;20259;-57
2024/04/07 00:49:33;;;;;;;1.52;0.50;;;;;20.20;99784.00;;;;2042871;28;20267;-57
2024/04/07 00:50:34;;;;;;;1.60;0.53;;;;;20.20;99788.00;;;;2038426;28;20278;-57
2024/04/07 00:51:34;;;;;;;1.63;0.43;;;;;20.20;99784.00;;;;2051401;28;20953;-57
2024/04/07 00:52:35;;;;;;;1.50;0.50;;;;;20.20;99790.00;;;;2051865;28;20474;-57
2024/04/07 00:53:35;;;;;;;1.30;0.40;;;;;20.20;99775.00;;;;2052305;28;20224;-58
2024/04/07 00:54:35;;;;;;;1.50;0.50;;;;;20.20;99788.00;;;;2051439;28;20274;-58
2024/04/07 00:55:36;;;;;;;1.47;0.47;;;;;20.20;99786.00;;;;2042712;28;20227;-57
2024/04/07 00:56:36;;;;;;;1.63;0.50;;;;;20.20;99792.00;;;;2051937;28;20227;-57
2024/04/07 00:57:38;;;;;;;1.40;0.43;;;;;20.20;99795.00;;;;2053002;28;20241;-57
2024/04/07 00:58:38;;;;;;;1.40;0.40;;;;;20.20;99797.00;;;;2052836;28;20226;-57
2024/04/07 00:59:38;;;;;;;1.60;0.50;;;;;20.20;99799.00;;;;2051467;28;20671;-57
2024/04/07 01:00:40;;;;;;;1.53;0.50;;;;;20.20;99799.00;;;;2041238;28;20955;-56
2024/04/07 01:01:41;;;;;;;1.50;0.40;;;;;20.20;99804.00;;;;2056373;28;20265;-57
2024/04/07 01:02:41;;;;;;;1.30;0.40;;;;;20.20;99813.00;;;;2057523;28;20242;-58
2024/04/07 01:03:42;;;;;;;1.50;0.50;;;;;20.20;99827.00;;;;2052261;28;20243;-57
2024/04/07 01:04:42;;;;;;;1.30;0.40;;;;;20.20;99830.00;;;;2051742;28;20296;-57
2024/04/07 01:05:46;;;;;;;1.40;0.40;;;;;20.20;99827.00;;;;2037384;28;20232;-57
2024/04/07 01:06:47;;;;;;;1.75;0.60;;;;;20.20;99825.00;;;;2049081;28;20306;-57
2024/04/07 01:07:47;;;;;;;1.50;0.40;;;;;20.20;99827.00;;;;2051984;28;20270;-57
2024/04/07 01:08:48;;;;;;;1.37;0.47;;;;;20.20;99826.00;;;;2045740;28;20231;-57
2024/04/07 01:09:49;;;;;;;1.60;0.50;;;;;20.20;99822.00;;;;2045297;28;20456;-57
2024/04/07 01:10:50;;;;;;;1.50;0.50;;;;;20.20;99818.00;;;;2040093;28;20432;-57
2024/04/07 01:11:50;;;;;;;1.60;0.40;;;;;20.20;99828.00;;;;2039725;28;20232;-57
2024/04/07 01:12:52;;;;;;;1.47;0.43;;;;;20.20;99828.00;;;;2049613;28;20228;-57
2024/04/07 01:13:52;;;;;;;1.42;0.50;;;;;20.20;99833.00;;;;2051850;28;20274;-56
2024/04/07 01:14:53;;;;;;;1.60;0.50;;;;;20.20;99836.00;;;;2049588;28;20211;-56
2024/04/07 01:15:53;;;;;;;1.53;0.50;;;;;20.20;99827.00;;;;2040989;28;20250;-57
2024/04/07 01:16:53;;;;;;;1.50;0.50;;;;;20.20;99832.00;;;;2050493;28;20227;-57
2024/04/07 01:17:54;;;;;;;1.40;0.47;;;;;20.20;99831.00;;;;2052544;28;20231;-58
2024/04/07 01:18:54;;;;;;;3.47;0.50;;;;;20.20;99834.00;;;;2051341;28;20294;-57
2024/04/07 01:19:54;;;;;;;1.60;0.50;;;;;20.20;99831.00;;;;2051963;28;20223;-58
2024/04/07 01:20:55;;;;;;;1.40;0.40;;;;;20.20;99845.00;;;;2039880;28;20223;-57
2024/04/07 01:21:55;;;;;;;1.60;0.47;;;;;20.30;99832.00;;;;2046152;28;20298;-57
2024/04/07 01:22:55;;;;;;;1.43;0.50;;;;;20.30;99853.00;;;;2050117;28;20265;-57
2024/04/07 01:23:56;;;;;;;1.60;0.50;;;;;20.20;99841.00;;;;2052145;28;20610;-57
2024/04/07 01:24:57;;;;;;;1.33;0.40;;;;;20.20;99851.00;;;;2052303;28;20534;-57
2024/04/07 01:25:57;;;;;;;1.33;0.47;;;;;20.20;99860.00;;;;2041588;28;20253;-57
2024/04/07 01:26:57;;;;;;;1.40;0.50;;;;;20.20;99860.00;;;;2052474;28;20286;-57
2024/04/07 01:28:04;;;;;;;1.40;0.43;;;;;20.20;99854.00;;;;2051406;28;20247;-57
2024/04/07 01:29:04;;;;;;;1.40;0.40;;;;;20.20;99900.00;;;;2044930;28;20282;-57
2024/04/07 01:30:05;;;;;;;1.60;0.60;;;;;20.20;99854.00;;;;2048980;28;20787;-57
2024/04/07 01:31:06;;;;;;;1.63;0.53;;;;;20.20;99858.00;;;;2042742;28;20674;-57
2024/04/07 01:32:07;;;;;;;1.33;0.40;;;;;20.20;99862.00;;;;2051979;28;20451;-57
2024/04/07 01:33:08;;;;;;;1.60;0.50;;;;;20.20;99863.00;;;;2053788;28;20216;-58
2024/04/07 01:34:08;;;;;;;1.63;0.50;;;;;20.20;99859.00;;;;2052623;28;20219;-58
2024/04/07 01:35:09;;;;;;;1.40;0.47;;;;;20.20;99859.00;;;;2049689;28;20568;-57
2024/04/07 01:36:09;;;;;;;1.50;0.50;;;;;20.20;99862.00;;;;2042542;28;20207;-58
2024/04/07 01:37:09;;;;;;;1.40;0.40;;;;;20.20;99874.00;;;;2050330;28;20235;-57
2024/04/07 01:38:10;;;;;;;1.47;0.50;;;;;20.20;99871.00;;;;2047798;28;20307;-58
2024/04/07 01:39:10;;;;;;;1.53;0.50;;;;;20.20;99864.00;;;;2051049;28;20275;-57
2024/04/07 01:40:11;;;;;;;1.37;0.40;;;;;20.20;99879.00;;;;2051588;28;20298;-57
2024/04/07 01:41:11;;;;;;;1.50;0.50;;;;;20.20;99876.00;;;;2040767;28;20207;-57
2024/04/07 01:42:11;;;;;;;1.83;0.80;;;;;20.20;99891.00;;;;2049862;28;20298;-57
2024/04/07 01:43:11;;;;;;;1.80;0.53;;;;;20.20;99886.00;;;;2044491;28;20704;-57
2024/04/07 01:44:12;;;;;;;1.40;0.50;;;;;20.20;99874.00;;;;2051344;28;20677;-57
2024/04/07 01:45:13;;;;;;;1.40;0.40;;;;;20.20;99876.00;;;;2051903;28;20311;-58
2024/04/07 01:46:13;;;;;;;1.60;0.68;;;;;20.20;99878.00;;;;2042698;28;20215;-57
2024/04/07 01:47:14;;;;;;;1.53;0.40;;;;;20.20;99886.00;;;;2051618;28;20291;-57
2024/04/07 01:48:14;;;;;;;1.40;0.50;;;;;20.20;99893.00;;;;2051971;28;20210;-57
2024/04/07 01:49:14;;;;;;;1.57;0.50;;;;;20.20;99893.00;;;;2050190;28;20267;-57
2024/04/07 01:50:15;;;;;;;1.40;0.50;;;;;20.20;99902.00;;;;2051860;28;20308;-57
2024/04/07 01:51:15;;;;;;;1.70;0.50;;;;;20.20;99895.00;;;;2034747;28;20203;-57
2024/04/07 01:52:16;;;;;;;3.90;0.50;;;;;20.20;99895.00;;;;2051651;28;20218;-57
2024/04/07 01:53:16;;;;;;;1.37;0.47;;;;;20.20;99901.00;;;;2051358;28;20232;-57
2024/04/07 01:54:16;;;;;;;1.47;0.50;;;;;20.20;99910.00;;;;2051345;28;20815;-57
2024/04/07 01:55:17;;;;;;;1.60;0.50;;;;;20.20;99915.00;;;;2051254;28;20650;-57
2024/04/07 01:56:17;;;;;;;2.30;0.50;;;;;20.20;99911.00;;;;2038511;28;20215;-57
2024/04/07 01:57:18;;;;;;;1.40;0.40;;;;;20.20;99913.00;;;;2048838;28;20266;-57
2024/04/07 01:58:18;;;;;;;1.40;0.43;;;;;20.20;99911.00;;;;2051191;28;20676;-57
2024/04/07 01:59:18;;;;;;;1.70;0.50;;;;;20.20;99919.00;;;;2051159;28;20228;-57
2024/04/07 02:00:20;;;;;;;1.60;0.60;;;;;20.20;99929.00;;;;2048867;28;20231;-57
2024/04/07 02:01:20;;;;;;;1.40;0.50;;;;;20.20;99933.00;;;;2043081;28;20222;-57
2024/04/07 02:02:21;;;;;;;1.40;0.40;;;;;20.20;99923.00;;;;2051521;28;20235;-57
2024/04/07 02:03:21;;;;;;;1.70;0.50;;;;;20.20;99925.00;;;;2052357;28;20298;-57
2024/04/07 02:04:22;;;;;;;1.50;0.50;;;;;20.20;99920.00;;;;2050368;28;20462;-57
2024/04/07 02:05:22;;;;;;;1.87;0.53;;;;;20.20;99916.00;;;;2042082;28;20294;-58
2024/04/07 02:06:23;;;;;;;1.50;0.50;;;;;20.20;99914.00;;;;2049783;28;20257;-57
2024/04/07 02:07:23;;;;;;;1.67;0.50;;;;;20.20;99921.00;;;;2049225;28;21169;-56
2024/04/07 02:08:23;;;;;;;1.50;0.50;;;;;20.20;99928.00;;;;2051374;28;20207;-57
2024/04/07 02:09:24;;;;;;;1.40;0.47;;;;;20.20;99916.00;;;;2050119;28;20216;-57
2024/04/07 02:10:24;;;;;;;1.40;0.50;;;;;20.20;99926.00;;;;2039927;28;20251;-57
2024/04/07 02:11:25;;;;;;;1.40;0.40;;;;;20.30;99912.00;;;;2050970;28;20735;-57
2024/04/07 02:12:25;;;;;;;1.70;0.53;;;;;20.20;99911.00;;;;2047833;28;20984;-57
2024/04/07 02:13:26;;;;;;;1.30;0.40;;;;;20.20;99917.00;;;;2048200;28;20738;-57
2024/04/07 02:14:26;;;;;;;1.60;0.60;;;;;20.20;99919.00;;;;2038423;28;20212;-57
2024/04/07 02:15:26;;;;;;;1.53;0.50;;;;;20.20;99935.00;;;;2029258;28;20219;-57
2024/04/07 02:16:27;;;;;;;1.50;0.50;;;;;20.20;99957.00;;;;2050993;28;20211;-57
2024/04/07 02:17:27;;;;;;;1.63;0.40;;;;;20.20;99968.00;;;;2051366;28;20207;-57
2024/04/07 02:18:27;;;;;;;1.43;0.50;;;;;20.20;99973.00;;;;2050982;28;20212;-57
2024/04/07 02:19:28;;;;;;;1.50;0.50;;;;;20.20;99979.00;;;;2051982;28;20236;-57
2024/04/07 02:20:28;;;;;;;1.50;0.47;;;;;20.20;99994.00;;;;2040511;28;20274;-57
2024/04/07 02:21:28;;;;;;;1.40;0.40;;;;;20.20;99990.00;;;;2049803;28;20226;-57
2024/04/07 02:22:28;;;;;;;1.40;0.40;;;;;20.20;100002.00;;;;2044478;28;20284;-56
2024/04/07 02:23:29;;;;;;;1.87;0.50;;;;;20.20;99998.00;;;;2052044;28;20223;-57
2024/04/07 02:24:30;;;;;;;2.03;0.60;;;;;20.20;100006.00;;;;2051641;28;20223;-57
2024/04/07 02:25:30;;;;;;;1.60;0.50;;;;;20.20;99999.00;;;;2041259;28;20239;-57
2024/04/07 02:26:31;;;;;;;1.50;0.60;;;;;20.20;100000.00;;;;2050384;28;20259;-57
2024/04/07 02:27:31;;;;;;;1.53;0.50;;;;;20.20;99994.00;;;;2051550;28;20226;-56
2024/04/07 02:28:33;;;;;;;1.40;0.50;;;;;20.20;100000.00;;;;2052119;28;20466;-56
2024/04/07 02:29:33;;;;;;;1.90;0.50;;;;;20.20;100006.00;;;;2051985;28;20246;-57
2024/04/07 02:30:36;;;;;;;1.60;0.50;;;;;20.20;100022.00;;;;2046335;28;20219;-57
2024/04/07 02:31:36;;;;;;;1.63;0.60;;;;;20.20;100003.00;;;;2051279;28;20258;-57
2024/04/07 02:32:37;;;;;;;1.50;0.50;;;;;20.20;100017.00;;;;2049702;28;20866;-57
2024/04/07 02:33:38;;;;;;;1.40;0.40;;;;;20.20;100003.00;;;;2052037;28;20591;-57
2024/04/07 02:34:39;;;;;;;1.50;0.50;;;;;20.20;100016.00;;;;2048914;28;20234;-57
2024/04/07 02:35:39;;;;;;;1.27;0.40;;;;;20.20;100025.00;;;;2044208;28;20246;-57
2024/04/07 02:36:40;;;;;;;1.40;0.40;;;;;20.20;100023.00;;;;2054645;28;20288;-57
2024/04/07 02:37:40;;;;;;;1.60;0.50;;;;;20.30;100026.00;;;;2052040;28;20223;-56
2024/04/07 02:38:40;;;;;;;1.60;0.50;;;;;20.20;100024.00;;;;2051515;28;20350;-56
2024/04/07 02:39:41;;;;;;;2.00;0.60;;;;;20.20;100037.00;;;;2050843;28;20314;-56
2024/04/07 02:40:42;;;;;;;1.20;0.37;;;;;20.20;100038.00;;;;2041318;28;20602;-60
2024/04/07 02:41:44;;;;;;;1.48;0.43;;;;;20.20;100081.00;;;;2046808;28;20223;-56
2024/04/07 02:42:44;;;;;;;1.92;0.50;;;;;20.20;100052.00;;;;2051681;28;20591;-56
2024/04/07 02:43:44;;;;;;;1.43;0.50;;;;;20.20;100063.00;;;;2051284;28;20227;-56
2024/04/07 02:48:41;;;;;;;1.70;0.40;;;;;20.20;100053.00;;;;2041127;28;20294;-57
2024/04/07 02:49:41;;;;;;;1.40;0.40;;;;;20.20;100043.00;;;;2053015;28;20223;-57
2024/04/07 02:50:42;;;;;;;1.50;0.40;;;;;20.20;100051.00;;;;2041235;28;20258;-61
2024/04/07 02:51:42;;;;;;;1.50;0.50;;;;;20.20;100064.00;;;;2051570;28;20227;-60
2024/04/07 02:52:42;;;;;;;1.50;0.50;;;;;20.20;100066.00;;;;2051839;28;20278;-58
2024/04/07 02:53:43;;;;;;;1.43;0.40;;;;;19.80;100079.00;;;;2049278;28;20627;-58
2024/04/07 02:54:43;;;;;;;1.53;0.57;;;;;20.20;100094.00;;;;2052064;28;20231;-56
2024/04/07 02:55:44;;;;;;;1.70;0.50;;;;;20.20;100094.00;;;;2039658;28;20235;-57
2024/04/07 02:56:44;;;;;;;1.40;0.40;;;;;20.20;100080.00;;;;2043476;28;20270;-57
2024/04/07 02:57:44;;;;;;;1.60;0.50;;;;;20.20;100084.00;;;;2043378;29;20258;-56
2024/04/07 02:58:45;;;;;;;1.90;0.60;;;;;20.20;100081.00;;;;2050870;28;20219;-57
2024/04/07 02:59:46;;;;;;;2.00;0.53;;;;;20.20;100095.00;;;;2051847;28;20233;-57
2024/04/07 03:00:47;;;;;;;1.30;0.35;;;;;20.20;100099.00;;;;2039598;28;20227;-57
2024/04/07 03:01:47;;;;;;;1.30;0.40;;;;;20.20;100088.00;;;;2051279;28;20222;-56
2024/04/07 03:02:48;;;;;;;1.40;0.50;;;;;20.20;100092.00;;;;2051585;28;20231;-57
2024/04/07 03:03:50;;;;;;;1.50;0.50;;;;;20.20;99976.00;;;;2045944;28;20379;-57
2024/04/07 03:04:51;;;;;;;1.40;0.40;;;;;20.20;100085.00;;;;2046204;28;20258;-57
2024/04/07 03:05:52;;;;;;;1.53;0.60;;;;;20.20;100102.00;;;;2042540;28;20228;-57
2024/04/07 03:06:52;;;;;;;1.52;0.50;;;;;20.20;100108.00;;;;2053341;28;20227;-57
2024/04/07 03:07:52;;;;;;;1.30;0.40;;;;;20.20;100116.00;;;;2052284;28;20207;-57
2024/04/07 03:08:57;;;;;;;2.00;0.50;;;;;20.20;100115.00;;;;2053745;28;20242;-57
2024/04/07 03:09:57;;;;;;;3.55;0.60;;;;;20.20;100109.00;;;;2051779;28;20227;-57
2024/04/07 03:10:58;;;;;;;1.33;0.40;;;;;20.20;100103.00;;;;2042609;28;20227;-57
2024/04/07 03:11:58;;;;;;;1.50;0.50;;;;;20.20;100108.00;;;;2049616;28;20964;-57
2024/04/07 03:12:58;;;;;;;2.37;0.60;;;;;20.20;100112.00;;;;2051072;28;20218;-57
2024/04/07 03:13:59;;;;;;;1.40;0.40;;;;;20.20;100115.00;;;;2053249;28;20223;-56
2024/04/07 03:15:03;;;;;;;1.40;0.40;;;;;20.20;100124.00;;;;2050856;28;20231;-57
2024/04/07 03:16:10;;;;;;;1.63;0.50;;;;;20.30;100121.00;;;;2041984;28;20227;-57
2024/04/07 03:17:10;;;;;;;1.90;0.50;;;;;20.20;100133.00;;;;2047266;28;20220;-57
2024/04/07 03:18:11;;;;;;;1.90;0.60;;;;;20.20;100134.00;;;;2052988;28;20310;-57
2024/04/07 03:19:11;;;;;;;1.50;0.50;;;;;20.20;100140.00;;;;2052904;28;20221;-57
2024/04/07 03:20:12;;;;;;;1.80;0.50;;;;;20.20;100137.00;;;;2052328;28;20227;-59
2024/04/07 03:21:13;;;;;;;1.95;0.50;;;;;20.20;100133.00;;;;2050676;28;20214;-57
2024/04/07 03:22:13;;;;;;;1.47;0.50;;;;;20.20;100137.00;;;;2049673;28;20708;-57
2024/04/07 03:23:13;;;;;;;1.50;0.60;;;;;20.20;100128.00;;;;2049096;28;20204;-57
2024/04/07 03:24:14;;;;;;;1.60;0.50;;;;;20.20;100138.00;;;;2053209;28;20590;-57
2024/04/07 03:25:14;;;;;;;2.43;0.50;;;;;20.20;100142.00;;;;2052377;28;20318;-57
2024/04/07 03:26:14;;;;;;;1.67;0.60;;;;;20.20;100133.00;;;;2041732;28;20635;-61
2024/04/07 03:27:15;;;;;;;1.73;0.50;;;;;20.20;100147.00;;;;2052634;28;20216;-60
2024/04/07 03:28:15;;;;;;;1.40;0.50;;;;;20.20;100145.00;;;;2052592;28;20221;-58
2024/04/07 03:29:15;;;;;;;1.40;0.50;;;;;20.20;100170.00;;;;2052184;28;20295;-56
2024/04/07 03:30:16;;;;;;;1.70;0.60;;;;;20.20;100160.00;;;;2051978;28;20708;-58
2024/04/07 03:31:17;;;;;;;1.40;0.40;;;;;20.20;100159.00;;;;2041990;28;20688;-56
2024/04/07 03:32:17;;;;;;;1.70;0.60;;;;;20.20;100153.00;;;;2052883;28;20235;-57
2024/04/07 03:33:18;;;;;;;1.60;0.57;;;;;20.20;100146.00;;;;2050660;28;20212;-57
2024/04/07 03:34:22;;;;;;;1.83;0.50;;;;;20.20;100154.00;;;;2051743;28;20215;-56
2024/04/07 03:35:23;;;;;;;1.73;0.50;;;;;20.20;100162.00;;;;2043386;28;20223;-57
2024/04/07 03:36:23;;;;;;;1.50;0.43;;;;;20.20;100163.00;;;;2049833;28;20212;-57
2024/04/07 03:37:23;;;;;;;1.60;0.60;;;;;20.20;100157.00;;;;2052981;28;20290;-57
2024/04/07 03:38:24;;;;;;;1.60;0.60;;;;;20.20;100155.00;;;;2053089;28;20226;-57
2024/04/07 03:39:24;;;;;;;1.97;0.60;;;;;20.20;100147.00;;;;2051852;28;20254;-57
2024/04/07 03:40:25;;;;;;;1.40;0.40;;;;;20.20;100151.00;;;;2043125;28;20215;-57
2024/04/07 03:41:25;;;;;;;1.52;0.55;;;;;20.20;100151.00;;;;2051498;28;21063;-57
2024/04/07 03:42:26;;;;;;;2.00;0.40;;;;;20.20;100165.00;;;;2048018;28;20207;-57
2024/04/07 03:43:26;;;;;;;1.60;0.50;;;;;20.20;100169.00;;;;2046689;28;20223;-57
2024/04/07 03:44:27;;;;;;;2.07;0.60;;;;;20.20;100174.00;;;;2050731;28;20215;-57
2024/04/07 03:45:27;;;;;;;1.47;0.50;;;;;20.20;100185.00;;;;2043508;28;20684;-57
2024/04/07 03:46:28;;;;;;;1.43;0.50;;;;;20.20;100183.00;;;;2049961;28;20459;-57
2024/04/07 03:47:28;;;;;;;1.60;0.57;;;;;20.20;100240.00;;;;2053083;28;20266;-57
2024/04/07 03:48:30;;;;;;;1.50;0.50;;;;;20.20;100200.00;;;;2051397;28;21323;-57
2024/04/07 03:49:30;;;;;;;1.45;0.47;;;;;20.20;100205.00;;;;2052763;28;20227;-57
2024/04/07 03:50:31;;;;;;;1.87;0.50;;;;;20.20;100205.00;;;;2043032;28;20243;-57
2024/04/07 03:51:31;;;;;;;1.60;0.50;;;;;20.20;100199.00;;;;2049647;28;20223;-56
2024/04/07 03:52:32;;;;;;;1.60;0.50;;;;;20.20;100196.00;;;;2051305;28;20219;-57
2024/04/07 03:53:32;;;;;;;1.57;0.50;;;;;19.90;100210.00;;;;2052051;28;20256;-56
2024/04/07 03:54:32;;;;;;;1.33;0.50;;;;;20.20;100215.00;;;;2048110;28;20219;-57
2024/04/07 03:55:33;;;;;;;1.73;0.60;;;;;20.20;100224.00;;;;2042097;28;20398;-57
2024/04/07 03:56:33;;;;;;;1.43;0.50;;;;;20.20;100231.00;;;;2051664;28;20318;-57
2024/04/07 03:57:34;;;;;;;1.27;0.40;;;;;20.20;100235.00;;;;2050091;28;20224;-56
2024/04/07 03:58:34;;;;;;;1.70;0.50;;;;;20.20;100237.00;;;;2051947;28;20265;-57
2024/04/07 03:59:35;;;;;;;1.97;0.70;;;;;20.20;100251.00;;;;2051640;28;20223;-57
2024/04/07 04:00:35;;;;;;;1.60;0.60;;;;;20.20;100247.00;;;;2039778;28;20243;-56
2024/04/07 04:01:39;;;;;;;1.97;0.50;;;;;20.20;100238.00;;;;2052208;28;20219;-57
2024/04/07 04:02:40;;;;;;;1.90;0.55;;;;;20.20;100234.00;;;;2053416;28;20249;-57
2024/04/07 04:03:40;;;;;;;2.07;0.53;;;;;20.20;100235.00;;;;2051696;28;20223;-57
2024/04/07 04:04:40;;;;;;;1.60;0.50;;;;;20.20;100248.00;;;;2053121;28;20735;-57
2024/04/07 04:05:41;;;;;;;1.30;0.40;;;;;20.20;100241.00;;;;2042049;28;20746;-56
2024/04/07 04:06:41;;;;;;;2.33;0.70;;;;;20.20;100226.00;;;;2052717;28;20747;-57
2024/04/07 04:07:41;;;;;;;1.50;0.40;;;;;20.20;100235.00;;;;2045663;28;20246;-57
2024/04/07 04:08:42;;;;;;;2.07;0.50;;;;;20.20;100236.00;;;;2045371;28;20255;-57
2024/04/07 04:09:42;;;;;;;1.47;0.50;;;;;20.20;100238.00;;;;2029790;29;20304;-56
2024/04/07 04:10:42;;;;;;;1.70;0.40;;;;;20.20;100242.00;;;;2026846;28;20369;-57
2024/04/07 04:11:43;;;;;;;1.97;0.60;;;;;20.20;100239.00;;;;2050433;28;20228;-56
2024/04/07 04:12:43;;;;;;;1.40;0.50;;;;;20.20;100240.00;;;;2049696;28;20223;-57
2024/04/07 04:13:47;;;;;;;1.30;0.40;;;;;20.20;100218.00;;;;2051577;28;20251;-56
2024/04/07 04:14:49;;;;;;;1.73;0.60;;;;;20.20;100216.00;;;;2052082;28;20278;-56
2024/04/07 04:15:50;;;;;;;1.80;0.50;;;;;20.20;100208.00;;;;2042315;28;20301;-58
2024/04/07 04:16:50;;;;;;;1.63;0.53;;;;;20.20;100215.00;;;;2048637;28;20697;-57
2024/04/07 04:17:51;;;;;;;2.07;0.60;;;;;20.20;100214.00;;;;2051683;28;20219;-57
2024/04/07 04:18:52;;;;;;;1.40;0.40;;;;;20.20;100215.00;;;;2050660;28;20750;-57
2024/04/07 04:19:52;;;;;;;1.40;0.40;;;;;20.20;100225.00;;;;2051596;28;20318;-57
2024/04/07 04:20:53;;;;;;;1.40;0.40;;;;;20.20;100211.00;;;;2044463;28;20876;-57
2024/04/07 04:21:53;;;;;;;1.90;0.70;;;;;20.20;100223.00;;;;2058697;28;20214;-57
2024/04/07 04:22:54;;;;;;;1.50;0.50;;;;;20.20;100232.00;;;;2056219;28;20211;-57
2024/04/07 04:23:54;;;;;;;1.70;0.50;;;;;20.20;100236.00;;;;2050496;28;20788;-57
2024/04/07 04:24:55;;;;;;;2.80;0.73;;;;;20.20;100242.00;;;;2050946;28;20666;-57
2024/04/07 04:25:56;;;;;;;1.52;0.60;;;;;20.20;100248.00;;;;2046023;28;20350;-57
2024/04/07 04:26:56;;;;;;;1.50;0.50;;;;;20.20;100247.00;;;;2050101;28;20330;-56
2024/04/07 04:27:56;;;;;;;1.73;0.50;;;;;20.20;100257.00;;;;2050118;28;20246;-57
2024/04/07 04:28:57;;;;;;;2.13;0.43;;;;;20.20;100248.00;;;;2052619;28;20211;-57
2024/04/07 04:29:57;;;;;;;1.80;0.50;;;;;20.20;100250.00;;;;2050351;28;20220;-58
2024/04/07 04:31:01;;;;;;;1.70;0.50;;;;;20.20;100231.00;;;;2033903;28;20243;-57
2024/04/07 04:32:02;;;;;;;2.33;0.60;;;;;20.20;100220.00;;;;2051744;28;20212;-57
2024/04/07 04:33:03;;;;;;;1.63;0.63;;;;;20.20;100229.00;;;;2051367;28;20219;-57
2024/04/07 04:34:03;;;;;;;1.70;0.50;;;;;20.20;100199.00;;;;2052002;28;21978;-57
2024/04/07 04:35:05;;;;;;;1.60;0.50;;;;;20.20;100198.00;;;;2052859;28;20495;-56
2024/04/07 04:36:15;;;;;;;1.50;0.40;;;;;20.20;100210.00;;;;2047340;28;20226;-56
2024/04/07 04:37:15;;;;;;;1.50;0.43;;;;;20.20;100198.00;;;;2059648;28;20219;-57
2024/04/07 04:38:16;;;;;;;1.43;0.50;;;;;20.20;100208.00;;;;2052541;28;20242;-57
2024/04/07 04:39:16;;;;;;;1.50;0.57;;;;;20.20;100215.00;;;;2050086;28;20234;-56
2024/04/07 04:40:17;;;;;;;1.80;0.60;;;;;20.20;100232.00;;;;2052497;28;20242;-57
2024/04/07 04:41:18;;;;;;;1.90;0.47;;;;;20.20;100249.00;;;;2039675;28;20231;-57
2024/04/07 04:42:18;;;;;;;1.67;0.65;;;;;20.20;100261.00;;;;2058926;28;20590;-57
2024/04/07 04:43:19;;;;;;;1.60;0.50;;;;;20.20;100276.00;;;;2052008;28;20242;-57
2024/04/07 04:44:19;;;;;;;2.30;0.80;;;;;20.20;100191.00;;;;2049573;28;20219;-57
2024/04/07 04:45:19;;;;;;;1.70;0.73;;;;;20.20;100285.00;;;;2052690;28;20596;-57
2024/04/07 04:46:20;;;;;;;1.57;0.50;;;;;20.20;100304.00;;;;2042209;28;20224;-57
2024/04/07 04:47:20;;;;;;;1.60;0.63;;;;;20.20;100308.00;;;;2046070;28;20234;-57
2024/04/07 04:48:21;;;;;;;2.10;0.80;;;;;20.20;100301.00;;;;2051654;28;20226;-57
2024/04/07 04:49:21;;;;;;;1.80;0.63;;;;;20.20;100298.00;;;;2048172;28;20244;-57
2024/04/07 04:50:21;;;;;;;1.60;0.50;;;;;19.80;100302.00;;;;2046531;28;20231;-58
2024/04/07 04:51:22;;;;;;;2.17;0.57;;;;;20.20;100306.00;;;;2053704;28;20246;-57
2024/04/07 04:52:22;;;;;;;1.60;0.53;;;;;20.20;100299.00;;;;2059144;28;20310;-57
2024/04/07 04:53:22;;;;;;;1.80;0.60;;;;;20.20;100296.00;;;;2045731;28;20224;-57
2024/04/07 04:54:23;;;;;;;2.40;0.60;;;;;20.20;100297.00;;;;2047161;28;20227;-57
2024/04/07 04:55:23;;;;;;;1.87;0.63;;;;;20.20;100301.00;;;;2042793;28;20215;-57
2024/04/07 04:56:24;;;;;;;1.83;0.53;;;;;20.20;100296.00;;;;2060152;28;20638;-56
2024/04/07 04:57:24;;;;;;;1.97;0.50;;;;;20.20;100308.00;;;;2059165;28;20233;-61
2024/04/07 04:58:24;;;;;;;1.93;0.67;;;;;20.20;100299.00;;;;2052266;28;20242;-59
2024/04/07 04:59:25;;;;;;;1.87;0.70;;;;;20.20;100288.00;;;;2052625;28;20220;-57
2024/04/07 05:00:27;;;;;;;2.60;0.67;;;;;20.20;100295.00;;;;2038952;28;20212;-59
2024/04/07 05:01:27;;;;;;;1.40;0.50;;;;;20.20;100303.00;;;;2059108;28;20215;-57
2024/04/07 05:02:28;;;;;;;1.60;0.40;;;;;20.20;100306.00;;;;2058204;28;20223;-57
2024/04/07 05:03:28;;;;;;;1.40;0.50;;;;;20.20;100320.00;;;;2050023;28;20245;-56
2024/04/07 05:04:29;;;;;;;1.50;0.50;;;;;20.20;100313.00;;;;2052273;28;20208;-57
2024/04/07 05:05:29;;;;;;;2.03;0.60;;;;;20.20;100309.00;;;;2044848;28;20543;-57